sensor_id;sensor_type;location;lat;lon;timestamp;pressure;altitude;pressure_sealevel;temperature;humidity
36192;BME280;22233;42.708;23.360;2024-02-26T00:00:07;94966.44;;;10.88;71.04
36192;BME280;22233;42.708;23.360;2024-02-26T00:02:37;94959.28;;;10.84;70.08
36192;BME280;22233;42.708;23.360;2024-02-26T00:05:06;94951.13;;;10.84;71.07
36192;BME280;22233;42.708;23.360;2024-02-26T00:07:32;94940.09;;;10.80;70.66
36192;BME280;22233;42.708;23.360;2024-02-26T00:09:57;94947.88;;;10.99;71.07
36192;BME280;22233;42.708;23.360;2024-02-26T00:12:23;94959.78;;;11.15;70.62
36192;BME280;22233;42.708;23.360;2024-02-26T00:14:48;94954.97;;;11.21;69.69
36192;BME280;22233;42.708;23.360;2024-02-26T00:17:15;94946.63;;;11.26;70.12
36192;BME280;22233;42.708;23.360;2024-02-26T00:19:41;94954.03;;;11.17;69.73
36192;BME280;22233;42.708;23.360;2024-02-26T00:22:06;94947.88;;;10.99;69.58
36192;BME280;22233;42.708;23.360;2024-02-26T00:24:31;94959.84;;;11.07;69.97
36192;BME280;22233;42.708;23.360;2024-02-26T00:26:57;94957.91;;;11.07;69.75
36192;BME280;22233;42.708;23.360;2024-02-26T00:29:22;94952.31;;;11.04;70.35
36192;BME280;22233;42.708;23.360;2024-02-26T00:31:48;94947.66;;;11.13;69.44
36192;BME280;22233;42.708;23.360;2024-02-26T00:34:14;94940.84;;;11.28;68.37
36192;BME280;22233;42.708;23.360;2024-02-26T00:36:39;94938.50;;;11.17;68.63
36192;BME280;22233;42.708;23.360;2024-02-26T00:39:05;94935.59;;;10.93;69.63
36192;BME280;22233;42.708;23.360;2024-02-26T00:41:30;94928.28;;;10.85;69.83
36192;BME280;22233;42.708;23.360;2024-02-26T00:43:55;94920.31;;;10.79;70.72
36192;BME280;22233;42.708;23.360;2024-02-26T00:46:21;94932.03;;;11.01;69.05
36192;BME280;22233;42.708;23.360;2024-02-26T00:48:46;94914.75;;;11.06;69.59
36192;BME280;22233;42.708;23.360;2024-02-26T00:51:12;94925.56;;;11.14;68.70
36192;BME280;22233;42.708;23.360;2024-02-26T00:53:37;94917.56;;;11.18;68.95
36192;BME280;22233;42.708;23.360;2024-02-26T00:56:02;94910.00;;;10.94;69.99
36192;BME280;22233;42.708;23.360;2024-02-26T00:58:28;94911.47;;;10.91;70.35
36192;BME280;22233;42.708;23.360;2024-02-26T01:00:53;94906.66;;;10.97;70.08
36192;BME280;22233;42.708;23.360;2024-02-26T01:03:19;94915.16;;;10.87;70.68
36192;BME280;22233;42.708;23.360;2024-02-26T01:05:45;94912.63;;;11.11;70.37
36192;BME280;22233;42.708;23.360;2024-02-26T01:08:10;94912.66;;;11.03;70.12
36192;BME280;22233;42.708;23.360;2024-02-26T01:10:36;94882.69;;;10.90;69.39
36192;BME280;22233;42.708;23.360;2024-02-26T01:13:01;94920.22;;;10.97;69.76
36192;BME280;22233;42.708;23.360;2024-02-26T01:15:27;94910.22;;;10.89;70.34
36192;BME280;22233;42.708;23.360;2024-02-26T01:17:52;94903.00;;;10.84;71.39
36192;BME280;22233;42.708;23.360;2024-02-26T01:20:18;94910.63;;;10.99;70.54
36192;BME280;22233;42.708;23.360;2024-02-26T01:22:44;94901.22;;;10.97;69.46
36192;BME280;22233;42.708;23.360;2024-02-26T01:25:10;94916.22;;;11.03;70.14
36192;BME280;22233;42.708;23.360;2024-02-26T01:27:36;94919.38;;;11.05;70.94
36192;BME280;22233;42.708;23.360;2024-02-26T01:30:05;94916.13;;;10.82;71.39
36192;BME280;22233;42.708;23.360;2024-02-26T01:32:31;94908.44;;;10.93;70.40
36192;BME280;22233;42.708;23.360;2024-02-26T01:34:56;94889.88;;;10.56;70.61
36192;BME280;22233;42.708;23.360;2024-02-26T01:37:22;94898.97;;;10.52;72.10
36192;BME280;22233;42.708;23.360;2024-02-26T01:39:47;94903.00;;;10.54;71.95
36192;BME280;22233;42.708;23.360;2024-02-26T01:42:13;94883.84;;;10.42;72.28
36192;BME280;22233;42.708;23.360;2024-02-26T01:44:38;94884.66;;;10.43;71.88
36192;BME280;22233;42.708;23.360;2024-02-26T01:47:05;94893.41;;;10.48;71.91
36192;BME280;22233;42.708;23.360;2024-02-26T01:49:33;94897.06;;;10.61;71.60
36192;BME280;22233;42.708;23.360;2024-02-26T01:52:00;94885.03;;;10.62;71.10
36192;BME280;22233;42.708;23.360;2024-02-26T01:54:27;94890.41;;;10.79;71.04
36192;BME280;22233;42.708;23.360;2024-02-26T01:56:53;94877.63;;;10.80;70.59
36192;BME280;22233;42.708;23.360;2024-02-26T01:59:19;94885.44;;;10.82;70.93
36192;BME280;22233;42.708;23.360;2024-02-26T02:01:48;94887.31;;;10.90;71.46
36192;BME280;22233;42.708;23.360;2024-02-26T02:04:17;94883.75;;;10.98;70.42
36192;BME280;22233;42.708;23.360;2024-02-26T02:06:45;94885.41;;;10.90;70.32
36192;BME280;22233;42.708;23.360;2024-02-26T02:09:11;94883.34;;;10.87;70.32
36192;BME280;22233;42.708;23.360;2024-02-26T02:11:37;94884.47;;;10.86;71.05
36192;BME280;22233;42.708;23.360;2024-02-26T02:14:03;94887.19;;;10.86;71.01
36192;BME280;22233;42.708;23.360;2024-02-26T02:16:28;94887.53;;;10.85;71.10
36192;BME280;22233;42.708;23.360;2024-02-26T02:18:54;94865.09;;;10.58;70.97
36192;BME280;22233;42.708;23.360;2024-02-26T02:21:19;94875.53;;;10.86;70.34
36192;BME280;22233;42.708;23.360;2024-02-26T02:23:44;94864.59;;;10.94;70.02
36192;BME280;22233;42.708;23.360;2024-02-26T02:26:12;94880.56;;;11.05;70.62
36192;BME280;22233;42.708;23.360;2024-02-26T02:28:39;94881.13;;;11.10;71.27
36192;BME280;22233;42.708;23.360;2024-02-26T02:31:05;94873.44;;;11.12;70.55
36192;BME280;22233;42.708;23.360;2024-02-26T02:33:31;94875.81;;;10.93;70.53
36192;BME280;22233;42.708;23.360;2024-02-26T02:35:56;94887.66;;;11.18;70.53
36192;BME280;22233;42.708;23.360;2024-02-26T02:38:23;94887.41;;;11.32;70.49
36192;BME280;22233;42.708;23.360;2024-02-26T02:40:51;94885.94;;;11.34;70.08
36192;BME280;22233;42.708;23.360;2024-02-26T02:43:16;94883.28;;;11.47;68.94
36192;BME280;22233;42.708;23.360;2024-02-26T02:45:41;94883.75;;;11.49;69.55
36192;BME280;22233;42.708;23.360;2024-02-26T02:48:07;94880.09;;;11.45;68.87
36192;BME280;22233;42.708;23.360;2024-02-26T02:50:32;94888.69;;;11.55;69.14
36192;BME280;22233;42.708;23.360;2024-02-26T02:52:57;94896.03;;;11.34;68.63
36192;BME280;22233;42.708;23.360;2024-02-26T02:55:23;94892.72;;;11.49;69.39
36192;BME280;22233;42.708;23.360;2024-02-26T02:57:48;94882.25;;;11.39;69.22
36192;BME280;22233;42.708;23.360;2024-02-26T03:00:14;94902.94;;;11.52;68.76
36192;BME280;22233;42.708;23.360;2024-02-26T03:02:39;94899.22;;;11.36;69.55
36192;BME280;22233;42.708;23.360;2024-02-26T03:05:05;94883.94;;;11.23;69.26
36192;BME280;22233;42.708;23.360;2024-02-26T03:07:30;94891.75;;;11.03;69.50
36192;BME280;22233;42.708;23.360;2024-02-26T03:09:56;94895.06;;;11.09;69.97
36192;BME280;22233;42.708;23.360;2024-02-26T03:12:21;94900.13;;;11.19;69.29
36192;BME280;22233;42.708;23.360;2024-02-26T03:14:47;94906.69;;;11.18;68.94
36192;BME280;22233;42.708;23.360;2024-02-26T03:17:12;94909.53;;;11.22;69.44
36192;BME280;22233;42.708;23.360;2024-02-26T03:19:37;94887.78;;;11.22;69.75
36192;BME280;22233;42.708;23.360;2024-02-26T03:22:03;94884.38;;;11.04;70.06
36192;BME280;22233;42.708;23.360;2024-02-26T03:24:28;94885.38;;;10.99;70.65
36192;BME280;22233;42.708;23.360;2024-02-26T03:26:54;94874.50;;;10.99;70.53
36192;BME280;22233;42.708;23.360;2024-02-26T03:29:19;94879.31;;;11.23;70.26
36192;BME280;22233;42.708;23.360;2024-02-26T03:31:44;94888.88;;;11.29;70.13
36192;BME280;22233;42.708;23.360;2024-02-26T03:34:10;94868.56;;;11.27;69.33
36192;BME280;22233;42.708;23.360;2024-02-26T03:36:37;94867.31;;;11.45;69.16
36192;BME280;22233;42.708;23.360;2024-02-26T03:39:03;94869.97;;;11.33;70.12
36192;BME280;22233;42.708;23.360;2024-02-26T03:41:33;94886.00;;;11.47;68.98
36192;BME280;22233;42.708;23.360;2024-02-26T03:43:58;94873.47;;;11.54;68.46
36192;BME280;22233;42.708;23.360;2024-02-26T03:46:24;94866.59;;;11.36;68.55
36192;BME280;22233;42.708;23.360;2024-02-26T03:48:49;94881.31;;;11.35;69.31
36192;BME280;22233;42.708;23.360;2024-02-26T03:51:14;94878.31;;;11.28;69.16
36192;BME280;22233;42.708;23.360;2024-02-26T03:53:40;94867.03;;;11.38;68.33
36192;BME280;22233;42.708;23.360;2024-02-26T03:56:06;94874.56;;;11.41;67.98
36192;BME280;22233;42.708;23.360;2024-02-26T03:58:31;94858.66;;;11.01;68.46
36192;BME280;22233;42.708;23.360;2024-02-26T04:00:57;94876.50;;;10.81;69.83
36192;BME280;22233;42.708;23.360;2024-02-26T04:03:22;94884.47;;;10.86;69.26
36192;BME280;22233;42.708;23.360;2024-02-26T04:05:48;94878.56;;;10.84;69.28
36192;BME280;22233;42.708;23.360;2024-02-26T04:08:13;94873.94;;;10.85;68.60
36192;BME280;22233;42.708;23.360;2024-02-26T04:10:38;94847.31;;;10.69;68.44
36192;BME280;22233;42.708;23.360;2024-02-26T04:13:05;94868.09;;;10.65;68.85
36192;BME280;22233;42.708;23.360;2024-02-26T04:15:31;94858.28;;;10.43;68.45
36192;BME280;22233;42.708;23.360;2024-02-26T04:17:56;94862.50;;;10.14;69.96
36192;BME280;22233;42.708;23.360;2024-02-26T04:20:22;94846.41;;;10.00;68.50
36192;BME280;22233;42.708;23.360;2024-02-26T04:22:47;94855.03;;;10.03;69.63
36192;BME280;22233;42.708;23.360;2024-02-26T04:25:12;94844.69;;;9.87;70.06
36192;BME280;22233;42.708;23.360;2024-02-26T04:27:38;94846.41;;;10.00;70.19
36192;BME280;22233;42.708;23.360;2024-02-26T04:30:05;94845.34;;;9.75;70.75
36192;BME280;22233;42.708;23.360;2024-02-26T04:32:30;94831.78;;;9.49;70.87
36192;BME280;22233;42.708;23.360;2024-02-26T04:34:56;94839.91;;;9.84;70.34
36192;BME280;22233;42.708;23.360;2024-02-26T04:37:21;94852.50;;;9.89;71.32
36192;BME280;22233;42.708;23.360;2024-02-26T04:39:46;94855.50;;;10.05;70.36
36192;BME280;22233;42.708;23.360;2024-02-26T04:42:12;94855.53;;;9.70;70.77
36192;BME280;22233;42.708;23.360;2024-02-26T04:44:37;94846.94;;;9.59;71.53
36192;BME280;22233;42.708;23.360;2024-02-26T04:47:03;94866.41;;;9.78;71.67
36192;BME280;22233;42.708;23.360;2024-02-26T04:49:28;94866.25;;;9.66;72.36
36192;BME280;22233;42.708;23.360;2024-02-26T04:51:53;94860.66;;;9.80;72.35
36192;BME280;22233;42.708;23.360;2024-02-26T04:54:19;94873.56;;;9.92;71.35
36192;BME280;22233;42.708;23.360;2024-02-26T04:56:44;94867.81;;;9.93;71.86
36192;BME280;22233;42.708;23.360;2024-02-26T04:59:10;94859.69;;;9.85;72.02
36192;BME280;22233;42.708;23.360;2024-02-26T05:01:35;94851.38;;;9.90;71.55
36192;BME280;22233;42.708;23.360;2024-02-26T05:04:02;94849.63;;;9.85;72.18
36192;BME280;22233;42.708;23.360;2024-02-26T05:06:28;94864.94;;;9.98;71.85
36192;BME280;22233;42.708;23.360;2024-02-26T05:08:54;94859.19;;;9.91;71.15
36192;BME280;22233;42.708;23.360;2024-02-26T05:11:19;94872.81;;;9.74;72.06
36192;BME280;22233;42.708;23.360;2024-02-26T05:13:44;94887.59;;;9.94;71.72
36192;BME280;22233;42.708;23.360;2024-02-26T05:16:10;94880.94;;;9.74;71.89
36192;BME280;22233;42.708;23.360;2024-02-26T05:18:36;94888.56;;;9.89;71.38
36192;BME280;22233;42.708;23.360;2024-02-26T05:21:01;94895.88;;;9.97;71.54
36192;BME280;22233;42.708;23.360;2024-02-26T05:23:28;94890.31;;;10.03;71.14
36192;BME280;22233;42.708;23.360;2024-02-26T05:25:54;94904.53;;;9.82;71.84
36192;BME280;22233;42.708;23.360;2024-02-26T05:28:19;94899.25;;;9.59;72.42
36192;BME280;22233;42.708;23.360;2024-02-26T05:30:45;94902.63;;;9.56;73.51
36192;BME280;22233;42.708;23.360;2024-02-26T05:33:11;94904.84;;;9.63;73.16
36192;BME280;22233;42.708;23.360;2024-02-26T05:35:37;94901.84;;;9.82;72.52
36192;BME280;22233;42.708;23.360;2024-02-26T05:38:02;94917.94;;;9.87;72.84
36192;BME280;22233;42.708;23.360;2024-02-26T05:40:28;94920.00;;;9.82;73.22
36192;BME280;22233;42.708;23.360;2024-02-26T05:42:55;94910.09;;;10.03;72.37
36192;BME280;22233;42.708;23.360;2024-02-26T05:45:20;94919.19;;;9.90;73.00
36192;BME280;22233;42.708;23.360;2024-02-26T05:47:47;94915.53;;;9.94;72.87
36192;BME280;22233;42.708;23.360;2024-02-26T05:50:13;94919.63;;;10.18;72.46
36192;BME280;22233;42.708;23.360;2024-02-26T05:52:38;94919.63;;;10.27;72.27
36192;BME280;22233;42.708;23.360;2024-02-26T05:55:04;94924.25;;;10.44;71.99
36192;BME280;22233;42.708;23.360;2024-02-26T05:57:33;94924.56;;;10.51;71.92
36192;BME280;22233;42.708;23.360;2024-02-26T05:59:59;94913.97;;;10.67;70.20
36192;BME280;22233;42.708;23.360;2024-02-26T06:02:30;94925.88;;;10.83;70.44
36192;BME280;22233;42.708;23.360;2024-02-26T06:04:56;94915.50;;;10.76;71.11
36192;BME280;22233;42.708;23.360;2024-02-26T06:07:21;94928.44;;;10.79;71.48
36192;BME280;22233;42.708;23.360;2024-02-26T06:09:47;94930.06;;;10.81;71.11
36192;BME280;22233;42.708;23.360;2024-02-26T06:12:13;94940.16;;;11.10;70.42
36192;BME280;22233;42.708;23.360;2024-02-26T06:14:39;94925.78;;;11.00;69.82
36192;BME280;22233;42.708;23.360;2024-02-26T06:17:04;94939.81;;;11.11;70.53
36192;BME280;22233;42.708;23.360;2024-02-26T06:19:30;94951.31;;;11.17;70.46
36192;BME280;22233;42.708;23.360;2024-02-26T06:21:55;94942.78;;;11.27;70.83
36192;BME280;22233;42.708;23.360;2024-02-26T06:24:21;94947.75;;;11.25;69.94
36192;BME280;22233;42.708;23.360;2024-02-26T06:26:47;94938.59;;;11.30;70.15
36192;BME280;22233;42.708;23.360;2024-02-26T06:29:13;94922.56;;;11.07;70.61
36192;BME280;22233;42.708;23.360;2024-02-26T06:31:38;94940.44;;;11.17;71.11
36192;BME280;22233;42.708;23.360;2024-02-26T06:34:03;94946.00;;;11.20;70.56
36192;BME280;22233;42.708;23.360;2024-02-26T06:36:29;94949.47;;;11.30;71.08
36192;BME280;22233;42.708;23.360;2024-02-26T06:38:56;94936.91;;;11.16;70.70
36192;BME280;22233;42.708;23.360;2024-02-26T06:41:22;94944.50;;;11.32;81.10
36192;BME280;22233;42.708;23.360;2024-02-26T06:43:53;94947.34;;;12.07;76.04
36192;BME280;22233;42.708;23.360;2024-02-26T06:46:18;94930.56;;;11.84;70.29
36192;BME280;22233;42.708;23.360;2024-02-26T06:48:43;94943.34;;;11.63;69.09
36192;BME280;22233;42.708;23.360;2024-02-26T06:51:09;94935.41;;;11.57;69.20
36192;BME280;22233;42.708;23.360;2024-02-26T06:53:34;94939.94;;;11.45;68.35
36192;BME280;22233;42.708;23.360;2024-02-26T06:56:00;94930.13;;;11.52;67.96
36192;BME280;22233;42.708;23.360;2024-02-26T06:58:25;94937.59;;;11.64;68.07
36192;BME280;22233;42.708;23.360;2024-02-26T07:00:51;94930.41;;;11.59;68.97
36192;BME280;22233;42.708;23.360;2024-02-26T07:03:16;94928.94;;;11.62;67.96
36192;BME280;22233;42.708;23.360;2024-02-26T07:05:41;94938.66;;;11.72;68.10
36192;BME280;22233;42.708;23.360;2024-02-26T07:08:07;94950.19;;;11.69;69.21
36192;BME280;22233;42.708;23.360;2024-02-26T07:10:32;94945.53;;;11.48;69.36
36192;BME280;22233;42.708;23.360;2024-02-26T07:12:58;94955.75;;;11.51;69.62
36192;BME280;22233;42.708;23.360;2024-02-26T07:15:24;94962.59;;;11.57;69.35
36192;BME280;22233;42.708;23.360;2024-02-26T07:17:49;94956.38;;;11.57;69.79
36192;BME280;22233;42.708;23.360;2024-02-26T07:20:15;94966.06;;;10.60;73.03
36192;BME280;22233;42.708;23.360;2024-02-26T07:22:40;94945.06;;;10.87;72.11
36192;BME280;22233;42.708;23.360;2024-02-26T07:25:07;94963.25;;;11.25;70.80
36192;BME280;22233;42.708;23.360;2024-02-26T07:27:34;94951.06;;;11.01;70.84
36192;BME280;22233;42.708;23.360;2024-02-26T07:29:59;94953.41;;;11.11;71.07
36192;BME280;22233;42.708;23.360;2024-02-26T07:32:24;94956.59;;;11.13;71.46
36192;BME280;22233;42.708;23.360;2024-02-26T07:34:50;94965.78;;;11.30;70.77
36192;BME280;22233;42.708;23.360;2024-02-26T07:37:15;94960.88;;;11.23;70.99
36192;BME280;22233;42.708;23.360;2024-02-26T07:39:40;94955.16;;;11.16;71.37
36192;BME280;22233;42.708;23.360;2024-02-26T07:42:06;94970.25;;;11.34;71.78
36192;BME280;22233;42.708;23.360;2024-02-26T07:44:33;94966.09;;;11.58;70.88
36192;BME280;22233;42.708;23.360;2024-02-26T07:46:58;94969.16;;;11.56;71.26
36192;BME280;22233;42.708;23.360;2024-02-26T07:49:23;94963.25;;;11.54;70.60
36192;BME280;22233;42.708;23.360;2024-02-26T07:51:49;94964.63;;;11.60;70.31
36192;BME280;22233;42.708;23.360;2024-02-26T07:54:14;94971.09;;;11.77;69.95
36192;BME280;22233;42.708;23.360;2024-02-26T07:56:41;94952.25;;;11.72;70.04
36192;BME280;22233;42.708;23.360;2024-02-26T07:59:06;94966.78;;;11.76;70.15
36192;BME280;22233;42.708;23.360;2024-02-26T08:01:32;94958.22;;;11.86;70.80
36192;BME280;22233;42.708;23.360;2024-02-26T08:03:58;94957.66;;;11.51;71.51
36192;BME280;22233;42.708;23.360;2024-02-26T08:06:24;94954.28;;;11.75;70.88
36192;BME280;22233;42.708;23.360;2024-02-26T08:08:50;94950.78;;;11.74;71.00
36192;BME280;22233;42.708;23.360;2024-02-26T08:11:16;94947.00;;;11.67;70.65
36192;BME280;22233;42.708;23.360;2024-02-26T08:13:41;94944.41;;;11.70;70.36
36192;BME280;22233;42.708;23.360;2024-02-26T08:16:07;94936.13;;;11.67;71.52
36192;BME280;22233;42.708;23.360;2024-02-26T08:18:32;94947.91;;;12.01;70.71
36192;BME280;22233;42.708;23.360;2024-02-26T08:20:57;94949.97;;;12.04;70.22
36192;BME280;22233;42.708;23.360;2024-02-26T08:23:23;94950.44;;;12.06;71.29
36192;BME280;22233;42.708;23.360;2024-02-26T08:25:49;94951.59;;;12.17;70.47
36192;BME280;22233;42.708;23.360;2024-02-26T08:28:14;94941.06;;;12.15;69.85
36192;BME280;22233;42.708;23.360;2024-02-26T08:30:39;94940.56;;;12.34;69.96
36192;BME280;22233;42.708;23.360;2024-02-26T08:33:05;94949.91;;;12.46;70.25
36192;BME280;22233;42.708;23.360;2024-02-26T08:35:30;94944.19;;;12.72;69.52
36192;BME280;22233;42.708;23.360;2024-02-26T08:37:55;94940.06;;;12.66;68.69
36192;BME280;22233;42.708;23.360;2024-02-26T08:40:21;94944.50;;;12.70;69.55
36192;BME280;22233;42.708;23.360;2024-02-26T08:42:46;94950.91;;;12.53;69.83
36192;BME280;22233;42.708;23.360;2024-02-26T08:45:12;94940.66;;;12.84;68.65
36192;BME280;22233;42.708;23.360;2024-02-26T08:47:40;94948.63;;;13.01;68.20
36192;BME280;22233;42.708;23.360;2024-02-26T08:50:06;94918.19;;;12.99;67.54
36192;BME280;22233;42.708;23.360;2024-02-26T08:52:31;94930.13;;;13.19;66.39
36192;BME280;22233;42.708;23.360;2024-02-26T08:54:57;94928.19;;;13.32;66.52
36192;BME280;22233;42.708;23.360;2024-02-26T08:57:23;94941.84;;;13.56;65.50
36192;BME280;22233;42.708;23.360;2024-02-26T08:59:48;94944.44;;;13.65;65.33
36192;BME280;22233;42.708;23.360;2024-02-26T09:02:14;94928.66;;;13.58;65.06
36192;BME280;22233;42.708;23.360;2024-02-26T09:04:39;94932.09;;;13.84;65.00
36192;BME280;22233;42.708;23.360;2024-02-26T09:07:05;94932.59;;;13.73;66.06
36192;BME280;22233;42.708;23.360;2024-02-26T09:09:31;94923.03;;;13.79;65.66
36192;BME280;22233;42.708;23.360;2024-02-26T09:11:57;94933.41;;;14.02;64.67
36192;BME280;22233;42.708;23.360;2024-02-26T09:14:22;94921.06;;;13.92;64.86
36192;BME280;22233;42.708;23.360;2024-02-26T09:16:47;94916.25;;;14.02;64.87
36192;BME280;22233;42.708;23.360;2024-02-26T09:19:16;94926.03;;;14.03;65.32
36192;BME280;22233;42.708;23.360;2024-02-26T09:21:45;94919.28;;;14.12;64.39
36192;BME280;22233;42.708;23.360;2024-02-26T09:24:11;94926.03;;;14.03;65.36
36192;BME280;22233;42.708;23.360;2024-02-26T09:26:37;94911.84;;;13.97;64.30
36192;BME280;22233;42.708;23.360;2024-02-26T09:29:02;94900.41;;;13.79;65.45
36192;BME280;22233;42.708;23.360;2024-02-26T09:31:29;94922.09;;;14.16;63.70
36192;BME280;22233;42.708;23.360;2024-02-26T09:33:54;94909.22;;;14.29;63.46
36192;BME280;22233;42.708;23.360;2024-02-26T09:36:20;94919.53;;;14.07;62.66
36192;BME280;22233;42.708;23.360;2024-02-26T09:38:46;94892.78;;;14.13;62.10
36192;BME280;22233;42.708;23.360;2024-02-26T09:41:14;94896.63;;;14.40;61.22
36192;BME280;22233;42.708;23.360;2024-02-26T09:43:44;94901.28;;;14.68;60.30
36192;BME280;22233;42.708;23.360;2024-02-26T09:46:10;94892.22;;;14.51;60.58
36192;BME280;22233;42.708;23.360;2024-02-26T09:48:37;94900.22;;;14.72;59.52
36192;BME280;22233;42.708;23.360;2024-02-26T09:51:03;94901.72;;;14.86;59.69
36192;BME280;22233;42.708;23.360;2024-02-26T09:53:29;94894.94;;;15.11;58.56
36192;BME280;22233;42.708;23.360;2024-02-26T09:55:57;94894.13;;;14.95;58.38
36192;BME280;22233;42.708;23.360;2024-02-26T09:58:23;94905.16;;;15.14;58.24
36192;BME280;22233;42.708;23.360;2024-02-26T10:00:54;94897.22;;;14.93;58.67
36192;BME280;22233;42.708;23.360;2024-02-26T10:03:23;94905.97;;;14.99;58.43
36192;BME280;22233;42.708;23.360;2024-02-26T10:05:50;94894.94;;;14.95;57.84
36192;BME280;22233;42.708;23.360;2024-02-26T10:08:16;94887.06;;;14.62;58.40
36192;BME280;22233;42.708;23.360;2024-02-26T10:10:43;94893.88;;;14.84;57.13
36192;BME280;22233;42.708;23.360;2024-02-26T10:13:09;94890.69;;;14.82;57.68
36192;BME280;22233;42.708;23.360;2024-02-26T10:15:36;94885.31;;;14.70;57.41
36192;BME280;22233;42.708;23.360;2024-02-26T10:18:06;94872.72;;;14.65;56.63
36192;BME280;22233;42.708;23.360;2024-02-26T10:20:31;94886.63;;;14.92;56.17
36192;BME280;22233;42.708;23.360;2024-02-26T10:22:57;94883.66;;;14.81;57.13
36192;BME280;22233;42.708;23.360;2024-02-26T10:25:22;94878.19;;;14.65;56.90
36192;BME280;22233;42.708;23.360;2024-02-26T10:27:48;94877.22;;;14.73;56.25
36192;BME280;22233;42.708;23.360;2024-02-26T10:30:19;94855.72;;;14.44;56.59
36192;BME280;22233;42.708;23.360;2024-02-26T10:32:46;94857.59;;;14.55;56.02
36192;BME280;22233;42.708;23.360;2024-02-26T10:35:13;94867.16;;;14.93;55.68
36192;BME280;22233;42.708;23.360;2024-02-26T10:37:40;94866.53;;;14.84;56.68
36192;BME280;22233;42.708;23.360;2024-02-26T10:40:09;94854.16;;;15.06;55.24
36192;BME280;22233;42.708;23.360;2024-02-26T10:42:34;94862.53;;;15.13;54.85
36192;BME280;22233;42.708;23.360;2024-02-26T10:45:00;94835.91;;;14.78;55.77
36192;BME280;22233;42.708;23.360;2024-02-26T10:47:27;94850.72;;;15.09;55.82
36192;BME280;22233;42.708;23.360;2024-02-26T10:49:53;94865.25;;;15.29;54.51
36192;BME280;22233;42.708;23.360;2024-02-26T10:52:19;94858.50;;;15.07;55.45
36192;BME280;22233;42.708;23.360;2024-02-26T10:54:47;94843.03;;;15.15;55.24
36192;BME280;22233;42.708;23.360;2024-02-26T10:57:15;94852.72;;;15.28;55.14
36192;BME280;22233;42.708;23.360;2024-02-26T10:59:42;94856.84;;;15.38;54.93
36192;BME280;22233;42.708;23.360;2024-02-26T11:02:10;94848.94;;;15.17;55.29
36192;BME280;22233;42.708;23.360;2024-02-26T11:04:37;94846.19;;;15.52;54.71
36192;BME280;22233;42.708;23.360;2024-02-26T11:07:03;94829.75;;;15.33;55.07
36192;BME280;22233;42.708;23.360;2024-02-26T11:09:30;94826.53;;;15.47;54.89
36192;BME280;22233;42.708;23.360;2024-02-26T11:11:57;94842.22;;;15.14;54.96
36192;BME280;22233;42.708;23.360;2024-02-26T11:14:23;94847.06;;;15.21;54.67
36192;BME280;22233;42.708;23.360;2024-02-26T11:16:51;94844.94;;;15.30;54.23
36192;BME280;22233;42.708;23.360;2024-02-26T11:19:17;94843.72;;;15.47;53.98
36192;BME280;22233;42.708;23.360;2024-02-26T11:21:43;94838.19;;;15.63;52.81
36192;BME280;22233;42.708;23.360;2024-02-26T11:24:12;94826.34;;;15.55;52.69
36192;BME280;22233;42.708;23.360;2024-02-26T11:26:42;94843.28;;;15.81;52.37
36192;BME280;22233;42.708;23.360;2024-02-26T11:29:11;94837.56;;;15.50;53.05
36192;BME280;22233;42.708;23.360;2024-02-26T11:31:39;94839.63;;;15.73;52.17
36192;BME280;22233;42.708;23.360;2024-02-26T11:34:07;94836.41;;;15.71;52.36
36192;BME280;22233;42.708;23.360;2024-02-26T11:36:32;94837.47;;;15.82;51.54
36192;BME280;22233;42.708;23.360;2024-02-26T11:38:58;94815.81;;;15.57;51.98
36192;BME280;22233;42.708;23.360;2024-02-26T11:41:23;94807.81;;;15.68;51.22
36192;BME280;22233;42.708;23.360;2024-02-26T11:43:50;94819.31;;;15.74;51.74
36192;BME280;22233;42.708;23.360;2024-02-26T11:46:45;94823.97;;;15.93;51.11
36192;BME280;22233;42.708;23.360;2024-02-26T11:49:29;94817.72;;;15.73;51.86
36192;BME280;22233;42.708;23.360;2024-02-26T11:51:56;94817.28;;;15.90;51.05
36192;BME280;22233;42.708;23.360;2024-02-26T11:54:51;94815.25;;;15.87;51.00
36192;BME280;22233;42.708;23.360;2024-02-26T11:57:39;94817.97;;;16.07;51.30
36192;BME280;22233;42.708;23.360;2024-02-26T12:00:13;94802.16;;;15.77;51.72
36192;BME280;22233;42.708;23.360;2024-02-26T12:02:49;94809.06;;;15.90;51.36
36192;BME280;22233;42.708;23.360;2024-02-26T12:05:17;94802.53;;;16.18;51.35
36192;BME280;22233;42.708;23.360;2024-02-26T12:08:09;94811.56;;;15.99;52.11
36192;BME280;22233;42.708;23.360;2024-02-26T12:10:41;94814.56;;;16.33;51.21
36192;BME280;22233;42.708;23.360;2024-02-26T12:13:10;94809.91;;;16.14;51.28
36192;BME280;22233;42.708;23.360;2024-02-26T12:15:38;94801.28;;;15.92;51.96
36192;BME280;22233;42.708;23.360;2024-02-26T12:18:06;94789.69;;;16.22;51.02
36192;BME280;22233;42.708;23.360;2024-02-26T12:20:32;94808.47;;;16.01;50.76
36192;BME280;22233;42.708;23.360;2024-02-26T12:22:58;94789.31;;;16.01;50.70
36192;BME280;22233;42.708;23.360;2024-02-26T12:25:25;94797.59;;;16.04;50.56
36192;BME280;22233;42.708;23.360;2024-02-26T12:27:54;94812.25;;;16.15;49.78
36192;BME280;22233;42.708;23.360;2024-02-26T12:30:20;94805.16;;;15.91;49.40
36192;BME280;22233;42.708;23.360;2024-02-26T12:32:50;94805.94;;;16.11;48.55
36192;BME280;22233;42.708;23.360;2024-02-26T12:35:16;94815.59;;;16.48;47.90
36192;BME280;22233;42.708;23.360;2024-02-26T12:37:43;94801.28;;;16.35;47.89
36192;BME280;22233;42.708;23.360;2024-02-26T12:40:09;94818.06;;;16.10;48.13
36192;BME280;22233;42.708;23.360;2024-02-26T12:42:35;94827.06;;;16.11;48.06
36192;BME280;22233;42.708;23.360;2024-02-26T12:45:08;94816.25;;;15.98;48.71